createdAt,value
2022-09-12T00:00:53.908Z,98443.39
2022-09-12T00:02:16.550Z,98448.19
2022-09-12T00:03:23.449Z,98448.98
2022-09-12T00:04:29.810Z,98451.95
2022-09-12T00:05:36.427Z,98455.30
2022-09-12T00:06:43.949Z,98458.92
2022-09-12T00:07:51.220Z,98458.63
2022-09-12T00:08:59.015Z,98460.09
2022-09-12T00:10:05.782Z,98465.35
2022-09-12T00:11:13.959Z,98470.17
2022-09-12T00:12:22.793Z,98475.95
2022-09-12T00:13:30.664Z,98480.77
2022-09-12T00:14:37.721Z,98482.14
2022-09-12T00:15:45.225Z,98482.05
2022-09-12T00:16:52.393Z,98483.21
2022-09-12T00:17:59.479Z,98483.02
2022-09-12T00:19:06.212Z,98488.64
2022-09-12T00:20:13.789Z,98492.60
2022-09-12T00:21:20.761Z,98496.91
2022-09-12T00:22:27.646Z,98508.55
2022-09-12T00:23:34.479Z,98516.25
2022-09-12T00:24:41.909Z,98524.56
2022-09-12T00:25:49.901Z,98533.34
2022-09-12T00:26:56.336Z,98539.30
2022-09-12T00:28:02.991Z,98547.10
2022-09-12T00:29:10.805Z,98556.13
2022-09-12T00:30:19.530Z,98561.66
2022-09-12T00:31:27.942Z,98563.39
2022-09-12T00:32:35.207Z,98565.79
2022-09-12T00:33:44.126Z,98568.58
2022-09-12T00:34:51.404Z,98570.41
2022-09-12T00:35:57.710Z,98573.59
2022-09-12T00:37:04.405Z,98576.01
2022-09-12T00:38:11.703Z,98576.23
2022-09-12T00:39:20.436Z,98578.33
2022-09-12T00:40:28.440Z,98577.63
2022-09-12T00:41:39.681Z,98583.69
2022-09-12T00:42:46.532Z,98582.98
2022-09-12T00:44:00.279Z,98582.25
2022-09-12T00:45:06.487Z,98587.36
2022-09-12T00:46:28.007Z,98596.46
2022-09-12T00:47:33.583Z,98599.52
2022-09-12T00:48:47.469Z,98600.17
2022-09-12T00:49:56.162Z,98601.27
2022-09-12T00:51:02.267Z,98602.75
2022-09-12T00:52:11.241Z,98608.59
2022-09-12T00:53:17.990Z,98613.66
2022-09-12T00:54:26.980Z,98619.41
2022-09-12T00:55:39.616Z,98619.17
2022-09-12T00:56:46.975Z,98626.30
2022-09-12T00:57:55.483Z,98628.94
2022-09-12T00:59:09.897Z,98630.70
2022-09-12T01:00:19.162Z,98641.49
2022-09-12T01:01:29.216Z,98642.09
2022-09-12T01:02:39.130Z,98639.01
2022-09-12T01:03:45.750Z,98639.45
2022-09-12T01:04:52.767Z,98634.21
2022-09-12T01:06:08.861Z,98636.66
2022-09-12T01:07:17.012Z,98635.31
2022-09-12T01:08:24.853Z,98634.73
2022-09-12T01:09:31.723Z,98636.95
2022-09-12T01:10:38.753Z,98638.83
2022-09-12T01:11:47.125Z,98641.70
2022-09-12T01:12:53.188Z,98639.59
2022-09-12T01:13:59.584Z,98636.27
2022-09-12T01:15:05.448Z,98637.66
2022-09-12T01:16:11.688Z,98639.35
2022-09-12T01:17:17.793Z,98638.15
2022-09-12T01:18:53.092Z,98635.48
2022-09-12T01:19:59.883Z,98631.91
2022-09-12T01:21:10.773Z,98629.96
2022-09-12T01:22:30.801Z,98627.59
2022-09-12T01:23:58.114Z,98625.05
2022-09-12T01:25:39.458Z,98619.64
2022-09-12T01:26:50.998Z,98618.08
2022-09-12T01:28:16.995Z,98617.94
2022-09-12T01:29:54.890Z,98619.27
2022-09-12T01:31:17.043Z,98622.50
2022-09-12T01:32:45.336Z,98626.21
2022-09-12T01:34:06.852Z,98630.89
2022-09-12T01:35:25.605Z,98630.10
2022-09-12T01:36:56.019Z,98632.68
2022-09-12T01:38:20.151Z,98632.31
2022-09-12T01:39:32.001Z,98633.55
2022-09-12T01:41:15.141Z,98635.47
2022-09-12T01:43:04.215Z,98645.98
2022-09-12T01:44:24.263Z,98656.63
2022-09-12T01:45:40.855Z,98665.73
2022-09-12T01:46:56.786Z,98675.25
2022-09-12T01:48:04.830Z,98681.73
2022-09-12T01:49:15.899Z,98688.20
2022-09-12T01:50:30.353Z,98692.25
2022-09-12T01:51:59.626Z,98693.86
2022-09-12T01:53:25.531Z,98696.42
2022-09-12T01:54:40.506Z,98695.84
2022-09-12T01:55:55.705Z,98694.33
2022-09-12T01:57:02.947Z,98694.13
2022-09-12T01:58:21.244Z,98689.80
2022-09-12T01:59:35.250Z,98689.74
2022-09-12T02:01:04.986Z,98686.77
2022-09-12T02:02:51.579Z,98682.14
2022-09-12T02:04:03.376Z,98681.06
2022-09-12T02:05:15.950Z,98672.47
2022-09-12T02:06:31.134Z,98665.71
2022-09-12T02:07:49.696Z,98665.48
2022-09-12T02:09:08.895Z,98662.90
2022-09-12T02:10:28.070Z,98661.38
2022-09-12T02:11:38.881Z,98665.04
2022-09-12T02:12:53.439Z,98668.88
2022-09-12T02:14:25.627Z,98669.48
2022-09-12T02:15:36.689Z,98675.70
2022-09-12T02:16:47.094Z,98673.27
2022-09-12T02:17:54.567Z,98673.42
2022-09-12T02:19:04.798Z,98675.53
2022-09-12T02:20:46.472Z,98676.02
2022-09-12T02:22:06.335Z,98670.59
2022-09-12T02:23:24.444Z,98670.60
2022-09-12T02:24:38.508Z,98669.40
2022-09-12T02:25:47.016Z,98669.26
2022-09-12T02:27:03.182Z,98670.75
2022-09-12T02:28:14.268Z,98672.11
2022-09-12T02:29:22.150Z,98670.95
2022-09-12T02:30:30.317Z,98668.98
2022-09-12T02:31:47.695Z,98668.84
2022-09-12T02:33:02.800Z,98670.34
2022-09-12T02:34:12.684Z,98669.86
2022-09-12T02:35:32.651Z,98665.64
2022-09-12T02:37:21.258Z,98664.13
2022-09-12T02:38:39.414Z,98666.20
2022-09-12T02:39:46.813Z,98665.60
2022-09-12T02:40:55.268Z,98665.58
2022-09-12T02:42:01.844Z,98667.48
2022-09-12T02:43:09.197Z,98668.33
2022-09-12T02:44:17.510Z,98667.88
2022-09-12T02:45:26.327Z,98667.98
2022-09-12T02:46:39.947Z,98667.23
2022-09-12T02:48:04.733Z,98669.75
2022-09-12T02:49:11.808Z,98672.31
2022-09-12T02:50:19.432Z,98668.80
2022-09-12T02:51:26.128Z,98669.55
2022-09-12T02:52:32.838Z,98665.88
2022-09-12T02:53:39.552Z,98667.39
2022-09-12T02:54:45.413Z,98671.30
2022-09-12T02:55:51.840Z,98674.70
2022-09-12T02:56:58.011Z,98674.95
2022-09-12T02:58:05.393Z,98675.59
2022-09-12T02:59:13.563Z,98676.98
2022-09-12T03:00:21.792Z,98681.39
2022-09-12T03:01:29.254Z,98683.64
2022-09-12T03:02:51.122Z,98684.61
2022-09-12T03:04:20.828Z,98687.54
2022-09-12T03:06:01.210Z,98690.65
2022-09-12T03:07:25.436Z,98694.56
2022-09-12T03:08:37.452Z,98699.02
2022-09-12T03:10:05.936Z,98703.23
2022-09-12T03:11:31.873Z,98710.75
2022-09-12T03:13:01.554Z,98711.67
2022-09-12T03:14:11.538Z,98712.02
2022-09-12T03:15:22.552Z,98712.73
2022-09-12T03:17:03.442Z,98715.92
2022-09-12T03:18:21.572Z,98716.48
2022-09-12T03:19:30.723Z,98718.13
2022-09-12T03:20:59.417Z,98717.57
2022-09-12T03:22:26.413Z,98720.60
2022-09-12T03:23:42.397Z,98719.79
2022-09-12T03:25:14.225Z,98717.06
2022-09-12T03:26:29.922Z,98715.45
2022-09-12T03:27:38.619Z,98716.27
2022-09-12T03:28:46.116Z,98718.44
2022-09-12T03:29:52.768Z,98717.16
2022-09-12T03:31:00.210Z,98714.45
2022-09-12T03:32:08.578Z,98714.28
2022-09-12T03:33:17.188Z,98715.33
2022-09-12T03:34:24.915Z,98715.93
2022-09-12T03:35:32.002Z,98713.27
2022-09-12T03:36:38.719Z,98713.61
2022-09-12T03:37:45.995Z,98715.64
2022-09-12T03:38:53.195Z,98715.11
2022-09-12T03:40:00.454Z,98713.67
2022-09-12T03:41:08.220Z,98716.73
2022-09-12T03:42:15.275Z,98714.73
2022-09-12T03:43:22.493Z,98715.32
2022-09-12T03:44:29.693Z,98717.77
2022-09-12T03:45:37.261Z,98714.98
2022-09-12T03:46:43.959Z,98719.45
2022-09-12T03:47:50.389Z,98722.45
2022-09-12T03:49:00.035Z,98719.68
2022-09-12T03:50:06.710Z,98721.77
2022-09-12T03:51:14.251Z,98721.16
2022-09-12T03:52:21.921Z,98722.56
2022-09-12T03:53:28.911Z,98724.60
2022-09-12T03:54:35.481Z,98726.05
2022-09-12T03:55:41.807Z,98724.02
2022-09-12T03:56:48.940Z,98724.98
2022-09-12T03:57:55.851Z,98729.98
2022-09-12T03:59:01.927Z,98733.70
2022-09-12T04:00:15.323Z,98734.99
2022-09-12T04:01:25.833Z,98738.99
2022-09-12T04:02:33.060Z,98739.54
2022-09-12T04:03:40.215Z,98739.73
2022-09-12T04:04:48.866Z,98740.49
2022-09-12T04:05:58.295Z,98745.38
2022-09-12T04:07:04.503Z,98740.11
2022-09-12T04:08:12.453Z,98741.27
2022-09-12T04:09:19.779Z,98740.06
2022-09-12T04:10:27.088Z,98740.66
2022-09-12T04:11:34.132Z,98741.42
2022-09-12T04:12:40.898Z,98738.62
2022-09-12T04:13:47.568Z,98738.84
2022-09-12T04:14:54.702Z,98736.23
2022-09-12T04:16:00.707Z,98736.84
2022-09-12T04:17:08.355Z,98738.36
2022-09-12T04:18:16.082Z,98741.92
2022-09-12T04:19:23.592Z,98741.52
2022-09-12T04:20:30.228Z,98743.16
2022-09-12T04:21:37.675Z,98745.73
2022-09-12T04:22:44.478Z,98748.36
2022-09-12T04:23:50.742Z,98748.79
2022-09-12T04:24:57.916Z,98746.73
2022-09-12T04:26:04.906Z,98740.14
2022-09-12T04:27:12.274Z,98738.29
2022-09-12T04:28:19.829Z,98735.48
2022-09-12T04:29:26.299Z,98736.05
2022-09-12T04:30:33.049Z,98735.25
2022-09-12T04:31:40.052Z,98735.61
2022-09-12T04:32:46.846Z,98733.80
2022-09-12T04:33:56.980Z,98735.49
2022-09-12T04:35:02.985Z,98737.73
2022-09-12T04:36:12.480Z,98735.61
2022-09-12T04:37:20.485Z,98734.98
2022-09-12T04:38:27.796Z,98733.83
2022-09-12T04:39:35.706Z,98731.34
2022-09-12T04:40:42.885Z,98727.45
2022-09-12T04:41:50.395Z,98725.45
2022-09-12T04:42:57.677Z,98725.65
2022-09-12T04:44:09.457Z,98721.06
2022-09-12T04:45:18.066Z,98716.70
2022-09-12T04:46:26.490Z,98714.09
2022-09-12T04:47:34.733Z,98714.73
2022-09-12T04:48:41.303Z,98718.46
2022-09-12T04:49:48.094Z,98720.58
2022-09-12T04:50:55.066Z,98723.23
2022-09-12T04:52:01.529Z,98719.80
2022-09-12T04:53:08.270Z,98717.88
2022-09-12T04:54:21.722Z,98722.44
2022-09-12T04:55:28.617Z,98719.87
2022-09-12T04:56:38.632Z,98720.77
2022-09-12T04:57:44.915Z,98721.02
2022-09-12T04:58:51.880Z,98717.56
2022-09-12T04:59:57.656Z,98720.39
2022-09-12T05:01:12.364Z,98717.50
2022-09-12T05:02:19.805Z,98717.06
2022-09-12T05:03:26.743Z,98716.14
2022-09-12T05:04:33.764Z,98714.79
2022-09-12T05:05:40.005Z,98712.46
2022-09-12T05:06:48.010Z,98713.42
2022-09-12T05:07:55.402Z,98712.73
2022-09-12T05:09:02.899Z,98714.41
2022-09-12T05:10:10.458Z,98714.69
2022-09-12T05:11:24.596Z,98713.73
2022-09-12T05:12:32.999Z,98714.38
2022-09-12T05:13:39.944Z,98714.21
2022-09-12T05:14:46.890Z,98712.60
2022-09-12T05:15:59.883Z,98714.90
2022-09-12T05:17:06.700Z,98714.70
2022-09-12T05:18:14.166Z,98713.94
2022-09-12T05:19:21.766Z,98713.08
2022-09-12T05:20:28.120Z,98712.98
2022-09-12T05:21:34.665Z,98712.80
2022-09-12T05:22:40.783Z,98713.27
2022-09-12T05:23:48.957Z,98713.10
2022-09-12T05:24:55.923Z,98710.41
2022-09-12T05:26:01.680Z,98710.58
2022-09-12T05:27:08.517Z,98709.83
2022-09-12T05:28:16.249Z,98706.21
2022-09-12T05:29:28.224Z,98707.48
2022-09-12T05:30:35.017Z,98706.21
2022-09-12T05:31:42.008Z,98707.16
2022-09-12T05:32:48.461Z,98706.81
2022-09-12T05:33:56.383Z,98706.89
2022-09-12T05:35:03.247Z,98713.35
2022-09-12T05:36:12.503Z,98714.08
2022-09-12T05:37:20.100Z,98710.61
2022-09-12T05:38:29.502Z,98712.88
2022-09-12T05:39:36.442Z,98713.55
2022-09-12T05:40:42.934Z,98713.88
2022-09-12T05:41:50.160Z,98713.14
2022-09-12T05:42:57.379Z,98712.02
2022-09-12T05:44:05.462Z,98714.13
2022-09-12T05:45:12.878Z,98716.70
2022-09-12T05:46:21.571Z,98718.79
2022-09-12T05:47:28.739Z,98716.77
2022-09-12T05:48:35.779Z,98714.30
2022-09-12T05:49:43.178Z,98714.80
2022-09-12T05:50:49.523Z,98710.78
2022-09-12T05:51:55.895Z,98711.38
2022-09-12T05:53:02.074Z,98713.97
2022-09-12T05:54:10.007Z,98713.17
2022-09-12T05:55:18.364Z,98711.20
2022-09-12T05:56:27.396Z,98712.44
2022-09-12T05:57:35.157Z,98715.05
2022-09-12T05:58:43.515Z,98713.55
2022-09-12T05:59:51.025Z,98714.72
2022-09-12T06:01:02.326Z,98714.37
2022-09-12T06:02:10.081Z,98712.48
2022-09-12T06:03:18.754Z,98709.75
2022-09-12T06:04:27.308Z,98711.06
2022-09-12T06:05:34.442Z,98712.83
2022-09-12T06:06:42.338Z,98713.09
2022-09-12T06:07:49.839Z,98714.52
2022-09-12T06:08:58.614Z,98713.31
2022-09-12T06:10:06.965Z,98713.23
2022-09-12T06:11:16.584Z,98713.85
2022-09-12T06:12:25.047Z,98717.06
2022-09-12T06:13:36.024Z,98713.69
2022-09-12T06:14:43.258Z,98711.41
2022-09-12T06:15:49.609Z,98710.30
2022-09-12T06:16:56.656Z,98712.28
2022-09-12T06:18:03.219Z,98712.39
2022-09-12T06:19:28.942Z,98710.10
2022-09-12T06:20:37.674Z,98705.48
2022-09-12T06:21:44.087Z,98708.19
2022-09-12T06:22:54.116Z,98709.32
2022-09-12T06:24:00.772Z,98704.29
2022-09-12T06:25:07.456Z,98705.16
2022-09-12T06:26:14.728Z,98704.84
2022-09-12T06:27:23.064Z,98702.54
2022-09-12T06:28:30.282Z,98700.84
2022-09-12T06:29:37.854Z,98701.52
2022-09-12T06:30:44.559Z,98698.80
2022-09-12T06:31:51.107Z,98697.34
2022-09-12T06:32:58.435Z,98698.96
2022-09-12T06:34:07.150Z,98698.08
2022-09-12T06:35:15.045Z,98700.04
2022-09-12T06:36:24.316Z,98697.40
2022-09-12T06:37:31.240Z,98696.13
2022-09-12T06:38:38.851Z,98695.84
2022-09-12T06:39:45.390Z,98693.92
2022-09-12T06:40:52.117Z,98696.80
2022-09-12T06:41:58.453Z,98689.69
2022-09-12T06:43:17.369Z,98690.78
2022-09-12T06:44:24.458Z,98690.20
2022-09-12T06:45:31.263Z,98690.28
2022-09-12T06:46:38.418Z,98688.67
2022-09-12T06:47:45.585Z,98689.94
2022-09-12T06:48:52.378Z,98691.20
2022-09-12T06:49:59.058Z,98693.83
2022-09-12T06:51:07.134Z,98694.25
2022-09-12T06:52:14.068Z,98693.34
2022-09-12T06:53:21.333Z,98693.83
2022-09-12T06:54:29.049Z,98693.88
2022-09-12T06:55:36.025Z,98694.14
2022-09-12T06:56:42.882Z,98694.19
2022-09-12T06:57:49.419Z,98696.05
2022-09-12T06:59:00.343Z,98697.21
2022-09-12T07:00:10.664Z,98698.10
2022-09-12T07:01:19.611Z,98698.20
2022-09-12T07:02:26.744Z,98701.16
2022-09-12T07:03:34.684Z,98702.94
2022-09-12T07:04:41.646Z,98701.71
2022-09-12T07:05:48.687Z,98703.88
2022-09-12T07:06:55.690Z,98702.55
2022-09-12T07:08:01.914Z,98701.39
2022-09-12T07:09:11.521Z,98700.48
2022-09-12T07:10:22.507Z,98699.05
2022-09-12T07:11:34.112Z,98696.57
2022-09-12T07:12:40.838Z,98695.90
2022-09-12T07:13:47.702Z,98695.84
2022-09-12T07:14:54.175Z,98694.02
2022-09-12T07:16:03.624Z,98696.02
2022-09-12T07:17:09.300Z,98695.41
2022-09-12T07:18:15.358Z,98694.13
2022-09-12T07:19:21.631Z,98693.70
2022-09-12T07:20:28.285Z,98691.53
2022-09-12T07:21:37.200Z,98693.38
2022-09-12T07:22:43.163Z,98691.74
2022-09-12T07:23:49.962Z,98692.05
2022-09-12T07:24:56.490Z,98692.79
2022-09-12T07:26:03.452Z,98695.06
2022-09-12T07:27:09.386Z,98693.80
2022-09-12T07:28:15.582Z,98688.91
2022-09-12T07:29:37.963Z,98690.18
2022-09-12T07:30:44.915Z,98686.88
2022-09-12T07:31:51.138Z,98690.39
2022-09-12T07:32:57.584Z,98692.35
2022-09-12T07:34:07.311Z,98689.98
2022-09-12T07:35:13.807Z,98692.52
2022-09-12T07:36:22.277Z,98688.52
2022-09-12T07:37:32.398Z,98691.54
2022-09-12T07:38:38.927Z,98690.13
2022-09-12T07:39:45.452Z,98692.41
2022-09-12T07:40:51.473Z,98691.19
2022-09-12T07:41:58.352Z,98691.55
2022-09-12T07:43:06.278Z,98690.06
2022-09-12T07:44:12.891Z,98688.02
2022-09-12T07:45:19.585Z,98686.35
2022-09-12T07:46:26.060Z,98687.42
2022-09-12T07:47:31.658Z,98689.58
2022-09-12T07:48:38.863Z,98687.31
2022-09-12T07:49:45.548Z,98684.05
2022-09-12T07:51:05.767Z,98684.34
2022-09-12T07:52:13.252Z,98682.63
2022-09-12T07:53:20.236Z,98682.67
2022-09-12T07:54:29.095Z,98685.22
2022-09-12T07:55:36.317Z,98680.59
2022-09-12T07:56:42.851Z,98682.66
2022-09-12T07:57:53.031Z,98680.30
2022-09-12T07:58:59.779Z,98684.52
2022-09-12T08:00:06.739Z,98678.80
2022-09-12T08:01:21.136Z,98677.42
2022-09-12T08:02:28.399Z,98678.45
2022-09-12T08:03:34.765Z,98676.90
2022-09-12T08:04:42.680Z,98675.02
2022-09-12T08:05:49.448Z,98672.91
2022-09-12T08:06:56.901Z,98673.80
2022-09-12T08:08:02.838Z,98672.73
2022-09-12T08:09:09.204Z,98672.48
2022-09-12T08:10:17.170Z,98672.75
2022-09-12T08:11:24.835Z,98670.70
2022-09-12T08:12:33.827Z,98673.61
2022-09-12T08:13:41.144Z,98669.77
2022-09-12T08:14:47.951Z,98672.61
2022-09-12T08:15:58.708Z,98674.64
2022-09-12T08:17:05.860Z,98676.50
2022-09-12T08:18:12.937Z,98673.91
2022-09-12T08:19:20.715Z,98671.84
2022-09-12T08:20:28.521Z,98671.65
2022-09-12T08:21:36.393Z,98670.70
2022-09-12T08:22:43.071Z,98670.80
2022-09-12T08:23:50.522Z,98669.02
2022-09-12T08:24:57.694Z,98668.23
2022-09-12T08:26:06.356Z,98667.48
2022-09-12T08:27:13.480Z,98668.17
2022-09-12T08:28:20.901Z,98665.38
2022-09-12T08:29:31.087Z,98667.86
2022-09-12T08:30:37.671Z,98665.31
2022-09-12T08:31:44.390Z,98668.10
2022-09-12T08:32:50.921Z,98667.83
2022-09-12T08:33:58.179Z,98665.30
2022-09-12T08:35:04.561Z,98666.95
2022-09-12T08:36:16.003Z,98667.70
2022-09-12T08:37:24.236Z,98667.40
2022-09-12T08:38:31.822Z,98663.52
2022-09-12T08:39:39.843Z,98664.08
2022-09-12T08:40:53.240Z,98664.40
2022-09-12T08:42:09.081Z,98666.05
2022-09-12T08:43:29.119Z,98663.27
2022-09-12T08:44:57.215Z,98664.50
2022-09-12T08:46:10.277Z,98660.81
2022-09-12T08:47:43.531Z,98659.34
2022-09-12T08:48:50.115Z,98658.63
2022-09-12T08:50:02.069Z,98658.58
2022-09-12T08:51:11.981Z,98655.81
2022-09-12T08:52:43.778Z,98653.94
2022-09-12T08:53:51.147Z,98652.92
2022-09-12T08:54:58.083Z,98654.09
2022-09-12T08:56:04.666Z,98653.52
2022-09-12T08:57:12.669Z,98654.34
2022-09-12T08:58:23.677Z,98653.02
2022-09-12T08:59:37.108Z,98652.92
2022-09-12T09:00:55.554Z,98651.13
2022-09-12T09:02:01.823Z,98648.79
2022-09-12T09:03:47.474Z,98648.41
2022-09-12T09:05:00.866Z,98647.42
2022-09-12T09:06:16.857Z,98648.23
2022-09-12T09:07:46.162Z,98645.79
2022-09-12T09:09:16.225Z,98646.54
2022-09-12T09:10:27.836Z,98647.35
2022-09-12T09:11:55.799Z,98648.52
2022-09-12T09:13:45.337Z,98649.33
2022-09-12T09:15:05.981Z,98650.83
2022-09-12T09:16:37.291Z,98651.42
2022-09-12T09:17:46.564Z,98650.54
2022-09-12T09:18:53.334Z,98646.02
2022-09-12T09:20:26.232Z,98651.23
2022-09-12T09:21:53.766Z,98649.86
2022-09-12T09:23:14.195Z,98646.61
2022-09-12T09:24:22.804Z,98645.85
2022-09-12T09:25:44.769Z,98642.61
2022-09-12T09:27:02.662Z,98642.46
2022-09-12T09:28:20.439Z,98641.98
2022-09-12T09:29:38.868Z,98645.09
2022-09-12T09:30:45.705Z,98646.20
2022-09-12T09:31:54.581Z,98645.98
2022-09-12T09:33:01.397Z,98647.30
2022-09-12T09:34:18.478Z,98646.46
2022-09-12T09:35:46.496Z,98645.54
2022-09-12T09:36:53.626Z,98644.91
2022-09-12T09:38:07.019Z,98645.72
2022-09-12T09:39:20.355Z,98643.70
2022-09-12T09:40:29.311Z,98642.84
2022-09-12T09:42:03.976Z,98642.29
2022-09-12T09:43:30.243Z,98639.45
2022-09-12T09:44:37.737Z,98639.43
2022-09-12T09:45:47.366Z,98639.20
2022-09-12T09:46:56.677Z,98641.65
2022-09-12T09:48:32.468Z,98637.95
2022-09-12T09:49:39.724Z,98636.44
2022-09-12T09:50:45.935Z,98635.45
2022-09-12T09:51:54.862Z,98630.55
2022-09-12T09:53:03.511Z,98634.88
2022-09-12T09:54:40.834Z,98632.70
2022-09-12T09:55:47.490Z,98634.32
2022-09-12T09:56:53.375Z,98633.48
2022-09-12T09:58:00.193Z,98630.46
2022-09-12T09:59:16.213Z,98630.75
2022-09-12T10:00:35.233Z,98633.69
2022-09-12T10:01:55.578Z,98634.30
2022-09-12T10:03:14.207Z,98634.05
2022-09-12T10:04:24.338Z,98633.01
2022-09-12T10:05:30.256Z,98637.39
2022-09-12T10:06:43.086Z,98637.04
2022-09-12T10:07:52.577Z,98636.98
2022-09-12T10:09:18.205Z,98638.78
2022-09-12T10:10:24.384Z,98632.17
2022-09-12T10:11:30.851Z,98635.85
2022-09-12T10:12:37.708Z,98636.69
2022-09-12T10:13:48.775Z,98639.05
2022-09-12T10:15:01.869Z,98637.52
2022-09-12T10:16:19.359Z,98637.47
2022-09-12T10:17:33.168Z,98635.59
2022-09-12T10:18:43.159Z,98634.27
2022-09-12T10:20:10.647Z,98633.06
2022-09-12T10:21:17.957Z,98631.17
2022-09-12T10:22:25.404Z,98630.77
2022-09-12T10:23:38.197Z,98625.80
2022-09-12T10:24:54.144Z,98624.98
2022-09-12T10:26:02.069Z,98625.39
2022-09-12T10:27:16.556Z,98626.12
2022-09-12T10:28:42.319Z,98625.23
2022-09-12T10:29:52.253Z,98628.39
2022-09-12T10:31:03.421Z,98629.30
2022-09-12T10:32:10.475Z,98629.92
2022-09-12T10:33:17.900Z,98630.88
2022-09-12T10:34:40.848Z,98629.89
2022-09-12T10:35:50.753Z,98627.20
2022-09-12T10:37:11.429Z,98628.58
2022-09-12T10:38:29.499Z,98630.05
2022-09-12T10:39:36.810Z,98629.50
2022-09-12T10:40:44.697Z,98632.25
2022-09-12T10:41:51.290Z,98633.86
2022-09-12T10:42:59.518Z,98633.73
2022-09-12T10:44:18.112Z,98635.82
2022-09-12T10:45:25.878Z,98637.94
2022-09-12T10:46:34.127Z,98635.86
2022-09-12T10:47:41.882Z,98637.31
2022-09-12T10:48:49.876Z,98636.33
2022-09-12T10:49:58.542Z,98634.75
2022-09-12T10:51:07.612Z,98631.13
2022-09-12T10:52:25.538Z,98627.54
2022-09-12T10:53:42.111Z,98631.08
2022-09-12T10:54:48.635Z,98632.08
2022-09-12T10:56:01.196Z,98631.98
2022-09-12T10:57:27.214Z,98633.02
2022-09-12T10:58:49.530Z,98632.08
2022-09-12T11:00:28.506Z,98633.77
2022-09-12T11:01:37.037Z,98634.36
2022-09-12T11:02:59.554Z,98631.39
2022-09-12T11:04:42.665Z,98632.98
2022-09-12T11:06:01.334Z,98631.59
2022-09-12T11:07:37.088Z,98625.52
2022-09-12T11:08:52.670Z,98624.89
2022-09-12T11:10:02.005Z,98628.73
2022-09-12T11:11:11.022Z,98627.07
2022-09-12T11:12:51.759Z,98623.60
2022-09-12T11:14:20.533Z,98625.98
2022-09-12T11:15:49.937Z,98625.39
2022-09-12T11:17:19.673Z,98622.73
2022-09-12T11:19:04.447Z,98624.48
2022-09-12T11:20:35.285Z,98628.70
2022-09-12T11:21:54.383Z,98626.11
2022-09-12T11:23:09.116Z,98630.45
2022-09-12T11:24:25.334Z,98629.71
2022-09-12T11:25:41.835Z,98626.81
2022-09-12T11:27:07.112Z,98626.42
2022-09-12T11:28:33.648Z,98624.92
2022-09-12T11:29:42.012Z,98629.21
2022-09-12T11:31:29.301Z,98628.84
2022-09-12T11:33:01.113Z,98629.34
2022-09-12T11:34:11.891Z,98626.40
2022-09-12T11:35:55.176Z,98625.80
2022-09-12T11:37:15.090Z,98622.76
2022-09-12T11:38:34.912Z,98626.02
2022-09-12T11:39:42.864Z,98627.63
2022-09-12T11:40:56.695Z,98628.27
2022-09-12T11:42:04.266Z,98630.20
2022-09-12T11:43:26.504Z,98632.41
2022-09-12T11:44:40.360Z,98627.69
2022-09-12T11:45:47.445Z,98631.53
2022-09-12T11:46:54.128Z,98632.86
2022-09-12T11:48:04.539Z,98635.23
2022-09-12T11:49:15.541Z,98637.11
2022-09-12T11:50:31.417Z,98638.27
2022-09-12T11:51:55.943Z,98638.20
2022-09-12T11:53:14.828Z,98638.17
2022-09-12T11:54:30.825Z,98642.19
2022-09-12T11:55:55.172Z,98642.98
2022-09-12T11:57:40.646Z,98640.36
2022-09-12T11:58:54.372Z,98642.98
2022-09-12T12:00:08.574Z,98641.65
2022-09-12T12:01:29.655Z,98639.84
2022-09-12T12:02:50.027Z,98636.19
2022-09-12T12:03:58.056Z,98638.60
2022-09-12T12:05:21.452Z,98638.50
2022-09-12T12:06:32.990Z,98642.30
2022-09-12T12:07:45.716Z,98641.75
2022-09-12T12:08:53.059Z,98639.02
2022-09-12T12:10:00.303Z,98642.67
2022-09-12T12:11:07.097Z,98643.42
2022-09-12T12:12:16.008Z,98643.11
2022-09-12T12:13:45.252Z,98643.20
2022-09-12T12:14:52.541Z,98644.20
2022-09-12T12:16:15.518Z,98644.42
2022-09-12T12:17:26.611Z,98643.38
2022-09-12T12:18:35.357Z,98644.55
2022-09-12T12:19:43.000Z,98645.96
2022-09-12T12:20:50.344Z,98647.77
2022-09-12T12:22:08.176Z,98648.85
2022-09-12T12:23:33.818Z,98649.21
2022-09-12T12:24:56.044Z,98646.02
2022-09-12T12:26:02.836Z,98651.33
2022-09-12T12:27:51.946Z,98649.35
2022-09-12T12:29:02.543Z,98651.98
2022-09-12T12:30:32.184Z,98656.57
2022-09-12T12:32:01.153Z,98658.09
2022-09-12T12:33:17.881Z,98655.35
2022-09-12T12:34:35.955Z,98656.25
2022-09-12T12:35:47.947Z,98656.75
2022-09-12T12:36:54.910Z,98657.27
2022-09-12T12:38:01.602Z,98658.73
2022-09-12T12:39:40.177Z,98658.55
2022-09-12T12:40:47.439Z,98658.05
2022-09-12T12:41:54.340Z,98658.17
2022-09-12T12:43:05.475Z,98660.31
2022-09-12T12:44:50.982Z,98659.08
2022-09-12T12:46:04.073Z,98659.40
2022-09-12T12:47:21.527Z,98659.77
2022-09-12T12:48:30.186Z,98657.52
2022-09-12T12:49:37.031Z,98657.99
2022-09-12T12:50:43.770Z,98656.46
2022-09-12T12:51:57.946Z,98658.05
2022-09-12T12:53:23.580Z,98657.96
2022-09-12T12:54:35.948Z,98653.83
2022-09-12T12:55:46.429Z,98656.61
2022-09-12T12:57:03.994Z,98657.42
2022-09-12T12:58:20.683Z,98652.29
2022-09-12T12:59:28.185Z,98656.10
2022-09-12T13:00:37.866Z,98657.19
2022-09-12T13:01:55.162Z,98659.46
2022-09-12T13:03:09.255Z,98659.63
2022-09-12T13:04:27.106Z,98661.27
2022-09-12T13:05:51.255Z,98659.07
2022-09-12T13:07:08.852Z,98660.55
2022-09-12T13:08:21.990Z,98663.52
2022-09-12T13:09:36.295Z,98666.89
2022-09-12T13:10:45.687Z,98665.83
2022-09-12T13:12:20.860Z,98665.73
2022-09-12T13:13:36.014Z,98664.55
2022-09-12T13:14:44.673Z,98665.54
2022-09-12T13:15:55.187Z,98668.09
2022-09-12T13:17:02.214Z,98672.09
2022-09-12T13:18:12.475Z,98670.58
2022-09-12T13:19:32.480Z,98672.52
2022-09-12T13:21:00.740Z,98676.33
2022-09-12T13:22:08.446Z,98676.34
2022-09-12T13:23:29.808Z,98676.77
2022-09-12T13:24:53.292Z,98680.45
2022-09-12T13:26:01.598Z,98680.27
2022-09-12T13:27:24.951Z,98676.05
2022-09-12T13:28:33.805Z,98679.58
2022-09-12T13:29:42.321Z,98681.80
2022-09-12T13:30:59.270Z,98679.11
2022-09-12T13:32:05.853Z,98684.70
2022-09-12T13:33:34.814Z,98685.61
2022-09-12T13:35:07.265Z,98687.09
2022-09-12T13:36:45.244Z,98685.37
2022-09-12T13:38:14.238Z,98682.38
2022-09-12T13:39:25.495Z,98683.34
2022-09-12T13:40:49.578Z,98686.88
2022-09-12T13:42:23.591Z,98687.34
2022-09-12T13:43:48.561Z,98684.68
2022-09-12T13:45:07.089Z,98682.77
2022-09-12T13:46:24.875Z,98684.70
2022-09-12T13:48:08.270Z,98683.55
2022-09-12T13:49:24.918Z,98683.11
2022-09-12T13:50:59.079Z,98682.98
2022-09-12T13:52:10.964Z,98686.15
2022-09-12T13:53:19.298Z,98686.32
2022-09-12T13:54:28.230Z,98684.46
2022-09-12T13:55:40.696Z,98685.73
2022-09-12T13:56:51.060Z,98686.48
2022-09-12T13:58:04.397Z,98684.92
2022-09-12T13:59:11.949Z,98684.61
2022-09-12T14:00:19.255Z,98686.99
2022-09-12T14:01:37.574Z,98687.52
2022-09-12T14:02:45.188Z,98689.24
2022-09-12T14:04:16.036Z,98691.59
2022-09-12T14:05:27.707Z,98692.39
2022-09-12T14:06:53.202Z,98687.09
2022-09-12T14:08:05.479Z,98687.63
2022-09-12T14:09:19.823Z,98685.94
2022-09-12T14:10:40.989Z,98685.52
2022-09-12T14:11:48.649Z,98685.46
2022-09-12T14:12:55.961Z,98685.66
2022-09-12T14:14:03.388Z,98684.64